createdAt,value
2016-12-17T00:00:52.111Z,71.33
2016-12-17T00:02:02.131Z,70.95
2016-12-17T00:03:12.456Z,70.95
2016-12-17T00:04:22.458Z,71.23
2016-12-17T00:05:32.169Z,71.14
2016-12-17T00:06:42.486Z,71.04
2016-12-17T00:07:52.495Z,71.14
2016-12-17T00:09:02.545Z,71.14
2016-12-17T00:10:12.892Z,70.76
2016-12-17T00:11:22.592Z,71.33
2016-12-17T00:12:32.297Z,71.11
2016-12-17T00:13:42.645Z,71.23
2016-12-17T00:14:52.976Z,71.14
2016-12-17T00:16:02.995Z,71.14
2016-12-17T00:17:13.014Z,71.23
2016-12-17T00:18:23.037Z,71.01
2016-12-17T00:19:33.355Z,71.11
2016-12-17T00:20:43.382Z,71.04
2016-12-17T00:21:53.382Z,70.95
2016-12-17T00:23:03.083Z,71.39
2016-12-17T00:24:12.800Z,71.11
2016-12-17T00:25:22.190Z,71.3
2016-12-17T00:26:32.532Z,71.11
2016-12-17T00:27:42.560Z,70.95
2016-12-17T00:28:52.568Z,71.04
2016-12-17T00:30:02.595Z,70.92
2016-12-17T00:31:12.931Z,71.14
2016-12-17T00:32:22.631Z,70.82
2016-12-17T00:33:32.010Z,70.86
2016-12-17T00:34:42.346Z,70.82
2016-12-17T00:35:52.677Z,71.01
2016-12-17T00:37:02.383Z,71.11
2016-12-17T00:38:12.396Z,70.82
2016-12-17T00:39:22.412Z,70.82
2016-12-17T00:40:32.738Z,70.82
2016-12-17T00:41:43.052Z,71.11
2016-12-17T00:42:53.372Z,70.82
2016-12-17T00:44:03.699Z,71.2
2016-12-17T00:45:14.030Z,70.82
2016-12-17T00:46:24.047Z,70.82
2016-12-17T00:47:34.055Z,70.92
2016-12-17T00:48:44.077Z,70.82
2016-12-17T00:49:54.400Z,71.01
2016-12-17T00:51:04.725Z,71.2
2016-12-17T00:52:14.740Z,71.39
2016-12-17T00:53:24.789Z,71.11
2016-12-17T00:54:35.100Z,71.39
2016-12-17T00:55:44.803Z,71.39
2016-12-17T00:56:55.128Z,71.2
2016-12-17T00:58:05.439Z,70.92
2016-12-17T00:59:14.825Z,71.48
2016-12-17T01:00:25.153Z,71.11
2016-12-17T01:01:35.175Z,70.82
2016-12-17T01:02:45.172Z,70.82
2016-12-17T01:03:55.482Z,70.73
2016-12-17T01:05:05.494Z,71.14
2016-12-17T01:06:15.805Z,71.11
2016-12-17T01:07:25.808Z,70.92
2016-12-17T01:08:35.509Z,71.01
2016-12-17T01:09:45.530Z,70.86
2016-12-17T01:10:55.548Z,71.2
2016-12-17T01:12:05.882Z,71.14
2016-12-17T01:13:15.887Z,71.2
2016-12-17T01:14:26.209Z,71.23
2016-12-17T01:15:36.530Z,71.01
2016-12-17T01:16:46.543Z,71.11
2016-12-17T01:17:56.871Z,70.95
2016-12-17T01:19:06.872Z,70.92
2016-12-17T01:20:17.207Z,70.92
2016-12-17T01:21:27.548Z,70.92
2016-12-17T01:22:37.872Z,71.11
2016-12-17T01:23:47.889Z,70.95
2016-12-17T01:24:57.932Z,70.92
2016-12-17T01:26:07.635Z,71.3
2016-12-17T01:27:17.326Z,71.39
2016-12-17T01:28:27.376Z,71.3
2016-12-17T01:29:37.702Z,71.3
2016-12-17T01:30:48.054Z,71.2
2016-12-17T01:31:58.430Z,71.11
2016-12-17T01:33:08.752Z,71.11
2016-12-17T01:34:18.789Z,71.01
2016-12-17T01:35:28.507Z,71.2
2016-12-17T01:36:38.827Z,71.11
2016-12-17T01:37:48.219Z,71.11
2016-12-17T01:38:58.560Z,71.2
2016-12-17T01:40:08.576Z,71.2
2016-12-17T01:41:18.594Z,71.01
2016-12-17T01:42:28.911Z,71.2
2016-12-17T01:43:38.932Z,71.39
2016-12-17T01:44:49.254Z,71.39
2016-12-17T01:45:59.580Z,70.82
2016-12-17T01:47:09.892Z,70.63
2016-12-17T01:48:19.919Z,71.01
2016-12-17T01:49:30.245Z,70.82
2016-12-17T01:50:40.568Z,70.82
2016-12-17T01:51:50.577Z,70.82
2016-12-17T01:53:00.882Z,70.73
2016-12-17T01:54:10.878Z,70.73
2016-12-17T01:55:21.203Z,70.82
2016-12-17T01:56:31.220Z,70.82
2016-12-17T01:57:41.237Z,70.54
2016-12-17T01:58:51.569Z,70.54
2016-12-17T02:00:01.905Z,70.35
2016-12-17T02:01:12.246Z,70.35
2016-12-17T02:02:22.248Z,70.44
2016-12-17T02:03:32.586Z,70.25
2016-12-17T02:04:42.912Z,70.44
2016-12-17T02:05:52.009Z,70.44
2016-12-17T02:07:02.012Z,70.25
2016-12-17T02:08:12.352Z,70.44
2016-12-17T02:09:22.678Z,70.44
2016-12-17T02:10:32.714Z,70.25
2016-12-17T02:11:43.044Z,70.25
2016-12-17T02:12:53.054Z,70.44
2016-12-17T02:14:02.752Z,70.35
2016-12-17T02:15:12.749Z,70.25
2016-12-17T02:16:22.763Z,70.25
2016-12-17T02:17:32.785Z,70.25
2016-12-17T02:18:42.478Z,70.44
2016-12-17T02:19:52.482Z,70.44
2016-12-17T02:21:02.490Z,70.54
2016-12-17T02:22:12.861Z,70.25
2016-12-17T02:23:23.189Z,70.63
2016-12-17T02:24:33.195Z,70.73
2016-12-17T02:25:43.509Z,70.73
2016-12-17T02:26:53.828Z,70.63
2016-12-17T02:28:04.156Z,70.73
2016-12-17T02:29:14.477Z,70.63
2016-12-17T02:30:24.795Z,70.63
2016-12-17T02:31:35.121Z,70.54
2016-12-17T02:32:44.826Z,70.63
2016-12-17T02:33:55.148Z,70.63
2016-12-17T02:35:05.459Z,70.63
2016-12-17T02:36:15.797Z,70.63
2016-12-17T02:37:25.803Z,70.63
2016-12-17T02:38:35.820Z,70.54
2016-12-17T02:39:45.508Z,70.82
2016-12-17T02:40:55.520Z,70.73
2016-12-17T02:42:05.845Z,70.54
2016-12-17T02:43:16.206Z,70.73
2016-12-17T02:44:26.549Z,70.63
2016-12-17T02:45:36.864Z,70.54
2016-12-17T02:46:47.176Z,70.35
2016-12-17T02:47:57.497Z,70.35
2016-12-17T02:49:07.507Z,70.35
2016-12-17T02:50:17.835Z,70.73
2016-12-17T02:51:28.182Z,70.73
2016-12-17T02:52:38.180Z,70.63
2016-12-17T02:53:48.496Z,70.25
2016-12-17T02:54:58.504Z,70.35
2016-12-17T02:56:08.209Z,70.44
2016-12-17T02:57:18.541Z,70.54
2016-12-17T02:58:27.918Z,70.35
2016-12-17T02:59:38.236Z,70.44
2016-12-17T03:00:47.926Z,70.63
2016-12-17T03:32:55.257Z,70.49
2016-12-17T03:34:05.560Z,71.15
2016-12-17T03:35:15.562Z,71.62
2016-12-17T03:36:25.875Z,72.47
2016-12-17T03:37:36.188Z,73.22
2016-12-17T03:38:45.884Z,73.13
2016-12-17T03:39:56.202Z,73.6
2016-12-17T03:41:06.529Z,73.98
2016-12-17T03:42:16.842Z,73.98
2016-12-17T03:43:27.163Z,74.07
2016-12-17T03:44:37.505Z,74.45
2016-12-17T03:45:47.832Z,73.36
2016-12-17T03:46:58.153Z,73.36
2016-12-17T03:48:08.154Z,73.17
2016-12-17T03:49:17.844Z,72.69
2016-12-17T03:50:27.540Z,72.88
2016-12-17T03:51:37.860Z,72.22
2016-12-17T03:52:48.188Z,72.79
2016-12-17T03:53:58.188Z,71.88
2016-12-17T03:55:08.205Z,72.07
2016-12-17T03:56:18.517Z,72.17
2016-12-17T03:57:28.829Z,72.36
2016-12-17T03:58:38.221Z,71.88
2016-12-17T03:59:47.916Z,71.98
2016-12-17T04:00:57.923Z,71.41
2016-12-17T04:02:07.937Z,71.69
2016-12-17T04:03:17.961Z,71.88
2016-12-17T04:04:28.279Z,71.6
2016-12-17T04:05:37.676Z,71.35
2016-12-17T04:06:47.992Z,71.64
2016-12-17T04:07:57.990Z,71.54
2016-12-17T04:09:08.015Z,71.35
2016-12-17T04:10:18.023Z,71.64
2016-12-17T04:11:28.039Z,71.35
2016-12-17T04:12:38.355Z,71.07
2016-12-17T04:13:48.353Z,70.97
2016-12-17T04:14:58.663Z,71.07
2016-12-17T04:16:08.370Z,71.07
2016-12-17T04:17:18.412Z,70.78
2016-12-17T04:18:28.720Z,71.16
2016-12-17T04:19:39.056Z,70.97
2016-12-17T04:20:49.407Z,71.35
2016-12-17T04:21:59.740Z,70.78
2016-12-17T04:23:10.060Z,70.78
2016-12-17T04:24:20.393Z,70.69
2016-12-17T04:25:30.402Z,70.69
2016-12-17T04:26:40.715Z,70.78
2016-12-17T04:27:50.722Z,70.69
2016-12-17T04:29:00.730Z,70.5
2016-12-17T04:30:10.439Z,70.4
2016-12-17T04:31:20.769Z,70.4
2016-12-17T04:32:30.781Z,70.59
2016-12-17T04:33:41.107Z,70.21
2016-12-17T04:34:51.133Z,70.59
2016-12-17T04:36:00.840Z,70.21
2016-12-17T04:37:10.891Z,70.4
2016-12-17T04:38:21.214Z,70.4
2016-12-17T04:39:31.546Z,70.21
2016-12-17T04:40:41.887Z,70.4
2016-12-17T04:41:52.214Z,70.31
2016-12-17T04:43:02.221Z,70.21
2016-12-17T04:44:12.529Z,70.31
2016-12-17T04:45:22.841Z,70.21
2016-12-17T04:46:33.159Z,70.59
2016-12-17T04:47:43.482Z,70.59
2016-12-17T04:48:53.500Z,70.4
2016-12-17T04:50:04.166Z,70.82
2016-12-17T04:51:13.823Z,70.44
2016-12-17T04:52:24.150Z,70.54
2016-12-17T04:53:34.467Z,70.73
2016-12-17T04:54:44.158Z,70.63
2016-12-17T04:55:53.851Z,70.63
2016-12-17T04:57:04.171Z,70.73
2016-12-17T04:58:14.188Z,70.35
2016-12-17T04:59:24.505Z,70.06
2016-12-17T05:00:34.526Z,70.35
2016-12-17T05:01:43.923Z,70.25
2016-12-17T05:02:54.240Z,70.06
2016-12-17T05:04:04.573Z,70.25
2016-12-17T05:05:14.903Z,70.35
2016-12-17T05:06:25.212Z,70.44
2016-12-17T05:07:35.207Z,70.35
2016-12-17T05:08:45.563Z,70.82
2016-12-17T05:09:55.577Z,70.35
2016-12-17T05:11:05.587Z,70.63
2016-12-17T05:12:15.591Z,70.63
2016-12-17T05:13:25.901Z,70.73
2016-12-17T05:14:35.932Z,70.44
2016-12-17T05:15:45.633Z,70.67
2016-12-17T05:16:55.655Z,70.67
2016-12-17T05:18:05.968Z,70.39
2016-12-17T05:19:16.275Z,70.39
2016-12-17T05:20:26.282Z,70.48
2016-12-17T05:21:35.666Z,70.57
2016-12-17T05:22:45.673Z,70.57
2016-12-17T05:23:55.048Z,70.95
2016-12-17T05:25:05.382Z,70.57
2016-12-17T05:26:15.394Z,70.76
2016-12-17T05:27:25.706Z,70.57
2016-12-17T05:28:36.063Z,70.67
2016-12-17T05:29:46.110Z,70.57
2016-12-17T05:30:56.161Z,70.67
2016-12-17T05:32:06.169Z,70.76
2016-12-17T05:33:16.490Z,70.76
2016-12-17T05:34:26.804Z,70.48
2016-12-17T05:35:36.824Z,70.48
2016-12-17T05:36:46.874Z,70.2
2016-12-17T05:37:57.202Z,70.57
2016-12-17T05:39:07.523Z,70.86
2016-12-17T05:40:17.834Z,70.57
2016-12-17T05:41:28.156Z,70.48
2016-12-17T05:42:37.864Z,70.48
2016-12-17T05:43:47.873Z,70.29
2016-12-17T05:44:58.191Z,70.61
2016-12-17T05:46:08.543Z,70.42
2016-12-17T05:47:18.904Z,70.7
2016-12-17T05:48:29.223Z,70.7
2016-12-17T05:49:39.543Z,70.32
2016-12-17T05:50:49.866Z,70.29
2016-12-17T05:51:59.877Z,70.57
2016-12-17T05:53:09.905Z,70.89
2016-12-17T05:54:19.606Z,71.17
2016-12-17T05:55:29.912Z,71.42
2016-12-17T05:56:39.947Z,71.46
2016-12-17T05:57:50.266Z,71.46
2016-12-17T05:59:00.578Z,71.46
2016-12-17T06:00:10.909Z,71.36
2016-12-17T06:01:20.916Z,71.17
2016-12-17T06:02:30.922Z,71.27
2016-12-17T06:03:41.245Z,71.36
2016-12-17T06:04:51.565Z,71.17
2016-12-17T06:06:01.578Z,71.36
2016-12-17T06:07:11.906Z,71.17
2016-12-17T06:08:21.920Z,70.89
2016-12-17T06:09:32.243Z,71.17
2016-12-17T06:10:41.954Z,71.08
2016-12-17T06:11:51.965Z,71.36
2016-12-17T06:13:02.289Z,71.08
2016-12-17T06:14:12.619Z,70.98
2016-12-17T06:15:22.930Z,71.27
2016-12-17T06:16:33.252Z,70.89
2016-12-17T06:17:43.567Z,70.89
2016-12-17T06:18:53.568Z,70.98
2016-12-17T06:20:03.594Z,71.65
2016-12-17T06:21:13.919Z,71.46
2016-12-17T06:22:24.244Z,71.55
2016-12-17T06:23:34.584Z,71.84
2016-12-17T06:24:44.924Z,71.27
2016-12-17T06:25:55.241Z,71.65
2016-12-17T06:27:04.319Z,71.74
2016-12-17T06:28:14.060Z,71.65
2016-12-17T06:29:24.386Z,71.36
2016-12-17T06:30:34.399Z,71.36
2016-12-17T06:31:44.720Z,71.36
2016-12-17T06:32:54.737Z,71.74
2016-12-17T06:34:04.753Z,71.65
2016-12-17T06:35:15.082Z,71.74
2016-12-17T06:36:25.407Z,71.55
2016-12-17T06:37:35.451Z,71.65
2016-12-17T06:38:45.781Z,71.27
2016-12-17T06:39:56.099Z,71.36
2016-12-17T06:41:06.119Z,71.36
2016-12-17T06:42:16.456Z,71.17
2016-12-17T06:43:26.163Z,71.27
2016-12-17T06:44:36.165Z,71.17
2016-12-17T06:45:46.481Z,71.27
2016-12-17T06:46:56.174Z,71.36
2016-12-17T06:48:06.189Z,71.74
2016-12-17T06:49:16.201Z,71.27
2016-12-17T06:50:26.218Z,71.36
2016-12-17T06:51:36.230Z,71.55
2016-12-17T06:52:46.246Z,71.36
2016-12-17T06:53:56.594Z,71.36
2016-12-17T06:55:06.640Z,71.55
2016-12-17T06:56:16.670Z,71.55
2016-12-17T06:57:26.998Z,71.65
2016-12-17T06:58:37.303Z,71.36
2016-12-17T06:59:47.347Z,71.36
2016-12-17T07:00:57.348Z,71.36
2016-12-17T07:02:07.362Z,71.84
2016-12-17T07:03:17.752Z,71.65
2016-12-17T07:04:27.768Z,71.74
2016-12-17T07:05:38.094Z,71.36
2016-12-17T07:06:48.427Z,71.46
2016-12-17T07:07:58.447Z,71.46
2016-12-17T07:09:08.470Z,71.36
2016-12-17T07:10:18.822Z,71.36
2016-12-17T07:11:29.164Z,71.27
2016-12-17T07:12:39.475Z,71.65
2016-12-17T07:13:49.798Z,71.65
2016-12-17T07:14:59.824Z,71.17
2016-12-17T07:16:09.869Z,71.27
2016-12-17T07:17:19.574Z,71.46
2016-12-17T07:18:29.584Z,71.65
2016-12-17T07:19:39.916Z,71.74
2016-12-17T07:20:49.931Z,71.65
2016-12-17T07:22:00.265Z,71.84
2016-12-17T07:23:10.591Z,71.65
2016-12-17T07:24:20.272Z,71.36
2016-12-17T07:25:30.305Z,71.36
2016-12-17T07:26:40.628Z,71.17
2016-12-17T07:27:50.983Z,71.74
2016-12-17T07:29:01.305Z,71.46
2016-12-17T07:30:11.309Z,71.46
2016-12-17T07:31:21.018Z,71.65
2016-12-17T07:32:31.056Z,71.46
2016-12-17T07:33:41.387Z,71.46
2016-12-17T07:34:51.703Z,71.46
2016-12-17T07:36:02.035Z,71.74
2016-12-17T07:37:11.742Z,71.17
2016-12-17T07:38:21.752Z,71.84
2016-12-17T07:39:32.073Z,71.17
2016-12-17T07:40:42.406Z,71.27
2016-12-17T07:41:52.428Z,71.17
2016-12-17T07:43:02.127Z,71.74
2016-12-17T07:44:11.842Z,71.84
2016-12-17T07:45:21.863Z,71.36
2016-12-17T07:46:32.250Z,71.27
2016-12-17T07:47:42.266Z,71.46
2016-12-17T07:48:52.287Z,71.08
2016-12-17T07:50:01.996Z,71.27
2016-12-17T07:51:11.739Z,71.17
2016-12-17T07:52:21.755Z,71.17
2016-12-17T07:53:32.080Z,71.74
2016-12-17T07:54:42.086Z,71.55
2016-12-17T07:55:52.093Z,71.46
2016-12-17T07:57:02.410Z,71.55
2016-12-17T07:58:12.427Z,71.55
2016-12-17T07:59:22.440Z,71.46
2016-12-17T08:00:32.763Z,71.65
2016-12-17T08:01:42.772Z,71.74
2016-12-17T08:02:52.810Z,71.74
2016-12-17T08:04:03.133Z,71.84
2016-12-17T08:05:13.149Z,71.65
2016-12-17T08:06:23.473Z,71.65
2016-12-17T08:07:33.806Z,71.93
2016-12-17T08:08:44.132Z,71.55
2016-12-17T08:09:54.449Z,71.46
2016-12-17T08:11:04.773Z,71.46
2016-12-17T08:12:15.092Z,71.65
2016-12-17T08:13:24.799Z,71.74
2016-12-17T08:14:34.826Z,71.84
2016-12-17T08:15:44.227Z,71.36
2016-12-17T08:16:54.557Z,71.55
2016-12-17T08:18:04.894Z,71.55
2016-12-17T08:19:15.228Z,71.55
2016-12-17T08:20:25.271Z,71.36
2016-12-17T08:21:35.290Z,71.46
2016-12-17T08:22:45.309Z,71.55
2016-12-17T08:23:55.004Z,71.74
2016-12-17T08:25:05.325Z,71.65
2016-12-17T08:26:15.648Z,71.27
2016-12-17T08:27:25.984Z,71.65
2016-12-17T08:28:35.685Z,71.46
2016-12-17T08:29:46.013Z,71.46
2016-12-17T08:30:55.724Z,71.36
2016-12-17T08:32:06.058Z,71.36
2016-12-17T08:33:15.761Z,71.5
2016-12-17T08:34:25.774Z,71.5
2016-12-17T08:35:36.091Z,71.21
2016-12-17T08:36:46.413Z,70.93
2016-12-17T08:37:56.745Z,71.12
2016-12-17T08:39:06.777Z,71.31
2016-12-17T08:40:17.095Z,71.4
2016-12-17T08:41:27.443Z,71.5
2016-12-17T08:42:37.452Z,71.59
2016-12-17T08:43:47.788Z,71.5
2016-12-17T08:44:57.506Z,71.5
2016-12-17T08:46:07.512Z,71.5
2016-12-17T08:47:17.224Z,71.5
2016-12-17T08:48:27.564Z,71.12
2016-12-17T08:49:37.876Z,71.12
2016-12-17T08:50:48.189Z,71.31
2016-12-17T08:51:58.221Z,71.12
2016-12-17T08:53:08.237Z,70.93
2016-12-17T08:54:17.945Z,71.02
2016-12-17T08:55:28.321Z,71.59
2016-12-17T08:56:38.637Z,71.78
2016-12-17T08:57:48.353Z,71.4
2016-12-17T08:58:58.689Z,71.4
2016-12-17T09:00:08.711Z,71.59
2016-12-17T09:01:19.118Z,71.21
2016-12-17T09:02:29.471Z,71.59
2016-12-17T09:03:39.807Z,71.5
2016-12-17T09:04:49.200Z,71.69
2016-12-17T09:05:58.942Z,71.69
2016-12-17T09:07:08.652Z,71.59
2016-12-17T09:08:18.049Z,71.69
2016-12-17T09:09:28.420Z,71.21
2016-12-17T09:10:38.740Z,71.02
2016-12-17T09:11:48.769Z,71.31
2016-12-17T09:12:58.790Z,71.06
2016-12-17T09:14:08.803Z,71.53
2016-12-17T09:15:19.134Z,71.53
2016-12-17T09:16:29.148Z,71.53
2016-12-17T09:17:39.499Z,71.53
2016-12-17T09:18:49.818Z,71.53
2016-12-17T09:19:59.841Z,71.53
2016-12-17T09:21:09.871Z,71.15
2016-12-17T09:22:19.898Z,71.25
2016-12-17T09:23:30.287Z,71.53
2016-12-17T09:24:39.991Z,71.25
2016-12-17T09:25:50.008Z,71.15
2016-12-17T09:27:00.340Z,71.06
2016-12-17T09:28:10.370Z,70.87
2016-12-17T09:29:20.699Z,71.15
2016-12-17T09:30:31.027Z,71.62
2016-12-17T09:31:41.052Z,71.53
2016-12-17T09:32:51.053Z,70.97
2016-12-17T09:34:00.760Z,71.15
2016-12-17T09:35:10.776Z,71.25
2016-12-17T09:36:21.103Z,70.87
2016-12-17T09:37:31.415Z,70.78
2016-12-17T09:38:41.453Z,70.97
2016-12-17T09:39:51.484Z,70.87
2016-12-17T09:41:01.500Z,70.39
2016-12-17T09:42:11.227Z,70.58
2016-12-17T09:43:21.543Z,70.3
2016-12-17T09:44:31.901Z,70.68
2016-12-17T09:45:41.924Z,70.87
2016-12-17T09:46:52.257Z,70.97
2016-12-17T09:48:02.264Z,71.06
2016-12-17T09:49:12.283Z,70.97
2016-12-17T09:50:21.703Z,70.49
2016-12-17T09:51:31.710Z,70.58
2016-12-17T09:52:41.428Z,70.97
2016-12-17T09:53:51.752Z,70.87
2016-12-17T09:55:02.072Z,70.58
2016-12-17T09:56:12.104Z,70.87
2016-12-17T09:57:22.130Z,70.78
2016-12-17T09:58:32.475Z,70.39
2016-12-17T09:59:42.545Z,70.39
2016-12-17T10:00:52.870Z,70.39
2016-12-17T10:02:03.206Z,70.87
2016-12-17T10:03:13.752Z,70.49
2016-12-17T10:04:24.070Z,70.3
2016-12-17T10:05:34.437Z,70.78
2016-12-17T10:06:44.753Z,71.53
2016-12-17T10:07:55.080Z,71.62
2016-12-17T10:09:04.798Z,70.87
2016-12-17T10:10:14.509Z,70.87
2016-12-17T10:11:24.536Z,70.87
2016-12-17T10:12:34.543Z,70.97
2016-12-17T10:13:44.243Z,70.58
2016-12-17T10:14:54.571Z,70.9
2016-12-17T10:16:04.596Z,70.9
2016-12-17T10:17:14.929Z,70.24
2016-12-17T10:18:24.626Z,70.62
2016-12-17T10:19:34.643Z,70.53
2016-12-17T10:20:44.342Z,70.72
2016-12-17T10:21:54.365Z,70.81
2016-12-17T10:23:04.717Z,70.72
2016-12-17T10:24:15.050Z,71.09
2016-12-17T10:25:25.376Z,70.72
2016-12-17T10:26:35.379Z,70.9
2016-12-17T10:27:45.698Z,70.72
2016-12-17T10:28:55.719Z,70.53
2016-12-17T10:30:05.737Z,70.81
2016-12-17T10:31:15.748Z,71
2016-12-17T10:32:25.455Z,70.75
2016-12-17T10:33:35.814Z,70.65
2016-12-17T10:34:45.535Z,70.65
2016-12-17T10:35:55.264Z,70.72
2016-12-17T10:37:05.592Z,70.81
2016-12-17T10:38:15.919Z,71
2016-12-17T10:39:25.934Z,71.57
2016-12-17T10:40:35.948Z,71.38
2016-12-17T10:41:46.269Z,71.19
2016-12-17T10:42:56.291Z,71.19
2016-12-17T10:44:06.622Z,71.57
2016-12-17T10:45:16.659Z,71.38
2016-12-17T10:46:26.693Z,71.66
2016-12-17T10:47:36.404Z,71.57
2016-12-17T10:48:46.734Z,71.57
2016-12-17T10:49:55.822Z,70.9
2016-12-17T10:51:06.136Z,71
2016-12-17T10:52:16.469Z,70.43
2016-12-17T10:53:26.795Z,70.43
2016-12-17T10:54:36.821Z,70.72
2016-12-17T10:55:47.149Z,71.09
2016-12-17T10:56:57.485Z,71
2016-12-17T10:58:07.811Z,70.72
2016-12-17T10:59:17.864Z,71.09
2016-12-17T11:00:27.248Z,71
2016-12-17T11:01:37.577Z,71
2016-12-17T11:02:47.594Z,70.72
2016-12-17T11:03:57.917Z,70.81
2016-12-17T11:05:07.927Z,70.62
2016-12-17T11:06:18.246Z,71
2016-12-17T11:07:28.257Z,70.84
2016-12-17T11:08:38.266Z,70.72
2016-12-17T11:09:48.585Z,71.09
2016-12-17T11:10:58.605Z,70.9
2016-12-17T11:12:08.921Z,71
2016-12-17T11:13:18.937Z,71
2016-12-17T11:14:28.962Z,70.72
2016-12-17T11:15:38.969Z,70.84
2016-12-17T11:16:49.290Z,70.75
2016-12-17T11:17:59.616Z,70.37
2016-12-17T11:19:09.938Z,70.18
2016-12-17T11:20:19.646Z,70.47
2016-12-17T11:21:29.335Z,70.18
2016-12-17T11:22:39.337Z,70.56
2016-12-17T11:23:49.685Z,70.56
2016-12-17T11:24:59.704Z,71.03
2016-12-17T11:26:09.419Z,70.56
2016-12-17T11:27:19.756Z,70.56
2016-12-17T11:28:30.076Z,70.56
2016-12-17T11:29:40.390Z,70.65
2016-12-17T11:30:50.740Z,70.94
2016-12-17T11:32:00.445Z,70.75
2016-12-17T11:33:09.834Z,70.65
2016-12-17T11:34:20.154Z,70.56
2016-12-17T11:35:30.182Z,70.56
2016-12-17T11:36:40.207Z,70.75
2016-12-17T11:37:50.234Z,70.84
2016-12-17T11:38:59.937Z,70.84
2016-12-17T11:40:09.957Z,70.84
2016-12-17T11:41:20.284Z,70.84
2016-12-17T11:42:30.326Z,70.84
2016-12-17T11:43:40.654Z,70.94
2016-12-17T11:44:50.996Z,70.47
2016-12-17T11:46:01.313Z,70.56
2016-12-17T11:47:11.638Z,70.65
2016-12-17T11:48:21.980Z,70.75
2016-12-17T11:49:32.032Z,70.94
2016-12-17T11:50:42.067Z,71.03
2016-12-17T11:51:51.774Z,71.03
2016-12-17T11:53:02.089Z,70.65
2016-12-17T11:54:12.099Z,71.03
2016-12-17T11:55:22.127Z,70.47
2016-12-17T11:56:31.828Z,71.03
2016-12-17T11:57:42.148Z,70.94
2016-12-17T11:58:52.488Z,70.56
2016-12-17T12:00:02.543Z,70.47
2016-12-17T12:01:12.615Z,70.65
2016-12-17T12:02:22.357Z,71.03
2016-12-17T12:03:32.369Z,71.03
2016-12-17T12:04:42.699Z,71.03
2016-12-17T12:05:53.029Z,70.75
2016-12-17T12:07:03.062Z,71.6
2016-12-17T12:08:13.420Z,71.51
2016-12-17T12:09:23.435Z,71.22
2016-12-17T12:10:33.443Z,71.22
2016-12-17T12:11:43.463Z,71.13
2016-12-17T12:12:53.785Z,71.13
2016-12-17T12:14:03.501Z,71.13
2016-12-17T12:15:13.556Z,71.32
2016-12-17T12:16:23.588Z,71.38
2016-12-17T12:17:33.921Z,71.22
2016-12-17T12:18:43.948Z,71.19
2016-12-17T12:19:53.973Z,71.47
2016-12-17T12:21:04.312Z,71.85
2016-12-17T12:22:14.329Z,71.66
2016-12-17T12:23:24.656Z,71.85
2016-12-17T12:24:34.716Z,71.76
2016-12-17T12:25:45.056Z,71.28
2016-12-17T12:26:55.396Z,71.38
2016-12-17T12:28:05.454Z,71.66
2016-12-17T12:29:15.811Z,71.57
2016-12-17T12:30:25.828Z,71.66
2016-12-17T12:31:36.180Z,71.47
2016-12-17T12:32:46.514Z,71.28
2016-12-17T12:33:56.230Z,71.09
2016-12-17T12:35:06.263Z,71.76
2016-12-17T12:36:15.683Z,71.57
2016-12-17T12:37:25.756Z,71.28
2016-12-17T12:38:35.777Z,71.57
2016-12-17T12:39:46.113Z,71.57
2016-12-17T12:40:56.446Z,71.57
2016-12-17T12:42:06.523Z,71.57
2016-12-17T12:43:16.850Z,71.28
2016-12-17T12:44:27.201Z,71.28
2016-12-17T12:45:37.247Z,71.28
2016-12-17T12:46:47.600Z,71.28
2016-12-17T12:47:57.633Z,71.76
2016-12-17T12:49:07.997Z,71.38
2016-12-17T12:50:18.350Z,71.57
2016-12-17T12:51:28.705Z,71.38
2016-12-17T12:52:39.097Z,71.28
2016-12-17T12:53:49.418Z,71.28
2016-12-17T12:54:59.749Z,71
2016-12-17T12:56:09.783Z,71.19
2016-12-17T12:57:19.528Z,70.9
2016-12-17T12:58:29.855Z,71.09
2016-12-17T12:59:40.207Z,71.09
2016-12-17T13:00:50.570Z,71.09
2016-12-17T13:02:00.288Z,71.28
2016-12-17T13:03:10.627Z,71.28
2016-12-17T13:04:20.648Z,71.28
2016-12-17T13:05:30.349Z,71.28
2016-12-17T13:06:40.681Z,71
2016-12-17T13:07:51.279Z,71.09
2016-12-17T13:09:00.675Z,71.28
2016-12-17T13:10:11.003Z,71.57
2016-12-17T13:11:21.024Z,71.76
2016-12-17T13:12:31.055Z,71.76
2016-12-17T13:13:41.068Z,71.57
2016-12-17T13:14:51.404Z,71.85
2016-12-17T13:16:01.446Z,71.95
2016-12-17T13:17:11.797Z,71.38
2016-12-17T13:18:21.805Z,71.47
2016-12-17T13:19:31.569Z,71.85
2016-12-17T13:20:41.921Z,71.38
2016-12-17T13:21:52.248Z,71.38
2016-12-17T13:23:02.605Z,71.47
2016-12-17T13:24:12.665Z,71.47
2016-12-17T13:25:22.996Z,71.57
2016-12-17T13:26:33.038Z,71.38
2016-12-17T13:27:43.386Z,71.38
2016-12-17T13:28:53.409Z,71.85
2016-12-17T13:30:03.160Z,71.38
2016-12-17T13:31:12.566Z,71.85
2016-12-17T13:32:22.934Z,71.66
2016-12-17T13:33:32.969Z,71.57
2016-12-17T13:34:42.990Z,71.95
2016-12-17T13:35:53.281Z,71.66
2016-12-17T13:37:03.329Z,72.04
2016-12-17T13:38:13.367Z,71.85
2016-12-17T13:39:23.734Z,71.85
2016-12-17T13:40:33.775Z,71.95
2016-12-17T13:41:43.501Z,71.66
2016-12-17T13:42:53.854Z,71.95
2016-12-17T13:44:03.288Z,72.04
2016-12-17T13:45:13.630Z,71.66
2016-12-17T13:46:24.002Z,71.57
2016-12-17T13:47:34.373Z,71.38
2016-12-17T13:48:44.402Z,71.85
2016-12-17T13:49:54.771Z,71.66
2016-12-17T13:51:04.810Z,71.38
2016-12-17T13:52:15.227Z,71.85
2016-12-17T13:53:25.573Z,71.47
2016-12-17T13:54:35.641Z,71.76
2016-12-17T13:55:45.723Z,72.04
2016-12-17T13:56:56.085Z,71.85
2016-12-17T13:58:06.479Z,71.66
2016-12-17T13:59:16.834Z,72.04
2016-12-17T14:00:27.200Z,71.76
2016-12-17T14:01:37.579Z,72.14
2016-12-17T14:02:47.304Z,71.95
2016-12-17T14:03:57.699Z,71.95
2016-12-17T14:05:08.112Z,71.85
2016-12-17T14:06:18.449Z,72.23
2016-12-17T14:07:28.156Z,71.95
2016-12-17T14:08:38.202Z,72.23
2016-12-17T14:09:47.941Z,72.23
2016-12-17T14:10:57.680Z,71.95
2016-12-17T14:12:08.070Z,71.76
2016-12-17T14:13:18.116Z,71.95
2016-12-17T14:14:28.140Z,72.23
2016-12-17T14:15:38.231Z,72.33
2016-12-17T14:16:47.970Z,72.42
2016-12-17T14:17:57.408Z,72.14
2016-12-17T14:19:07.457Z,72.33
2016-12-17T14:20:17.825Z,72.23
2016-12-17T14:21:27.849Z,72.23
2016-12-17T14:22:37.941Z,72.04
2016-12-17T14:23:47.962Z,72.14
2016-12-17T14:24:58.329Z,72.04
2016-12-17T14:26:08.693Z,72.23
2016-12-17T14:27:19.177Z,72.14
2016-12-17T14:28:29.515Z,72.23
2016-12-17T14:29:39.237Z,72.14
2016-12-17T14:30:49.648Z,72.04
2016-12-17T14:31:59.369Z,72.04
2016-12-17T14:33:09.406Z,72.04
2016-12-17T14:34:19.463Z,71.85
2016-12-17T14:35:29.801Z,72.04
2016-12-17T14:36:40.146Z,72.14
2016-12-17T14:37:50.538Z,72.14
2016-12-17T14:39:00.894Z,72.04
2016-12-17T14:40:10.619Z,72.04
2016-12-17T14:41:20.638Z,72
2016-12-17T14:42:30.985Z,72
2016-12-17T14:43:41.018Z,72
2016-12-17T14:44:51.388Z,72
2016-12-17T14:46:01.763Z,71.91
2016-12-17T14:47:11.488Z,72.14
2016-12-17T14:48:21.520Z,71.91
2016-12-17T14:49:31.555Z,71.81
2016-12-17T14:50:41.898Z,71.81
2016-12-17T14:51:51.919Z,72
2016-12-17T14:53:01.949Z,72
2016-12-17T14:54:12.312Z,72.38
2016-12-17T14:55:22.642Z,72.48
2016-12-17T14:56:33.021Z,72.48
2016-12-17T14:57:43.361Z,72.77
2016-12-17T14:58:53.074Z,71.91
2016-12-17T15:00:03.117Z,71.81
2016-12-17T15:01:13.146Z,71.81
2016-12-17T15:02:23.479Z,72.48
2016-12-17T15:03:33.508Z,72
2016-12-17T15:04:43.550Z,71.81
2016-12-17T15:05:53.587Z,72.57
2016-12-17T15:07:03.613Z,72.57
2016-12-17T15:08:13.949Z,71.81
2016-12-17T15:09:24.270Z,72.57
2016-12-17T15:10:34.599Z,71.81
2016-12-17T15:11:44.971Z,72.57
2016-12-17T15:12:55.002Z,72.57
2016-12-17T15:14:05.323Z,72.67
2016-12-17T15:15:15.053Z,72.77
2016-12-17T15:16:24.771Z,72.86
2016-12-17T15:17:35.137Z,72
2016-12-17T15:18:45.499Z,72
2016-12-17T15:19:55.509Z,72
2016-12-17T15:21:05.259Z,72.1
2016-12-17T15:22:15.592Z,72
2016-12-17T15:23:25.926Z,72
2016-12-17T15:24:35.664Z,72
2016-12-17T15:25:45.385Z,72.1
2016-12-17T15:26:55.701Z,71.72
2016-12-17T15:28:05.420Z,72.1
2016-12-17T15:29:15.771Z,72
2016-12-17T15:30:25.789Z,72
2016-12-17T15:31:35.815Z,72.1
2016-12-17T15:32:45.859Z,72
2016-12-17T15:33:54.962Z,72
2016-12-17T15:35:04.674Z,72
2016-12-17T15:36:15.042Z,72
2016-12-17T15:37:25.377Z,72
2016-12-17T15:38:35.389Z,72.1
2016-12-17T15:39:45.709Z,72.1